sensor_id;sensor_type;location;lat;lon;timestamp;pressure;altitude;pressure_sealevel;temperature;humidity
39443;BME280;25147;52.142;9.960;2023-07-29T00:00:06;99789.00;;;19.15;100.00
39443;BME280;25147;52.142;9.960;2023-07-29T00:02:33;99785.00;;;19.08;100.00
39443;BME280;25147;52.142;9.960;2023-07-29T00:05:01;99804.72;;;19.18;100.00
39443;BME280;25147;52.142;9.960;2023-07-29T00:07:28;99807.84;;;19.11;100.00
39443;BME280;25147;52.142;9.960;2023-07-29T00:09:55;99812.13;;;19.13;100.00
39443;BME280;25147;52.142;9.960;2023-07-29T00:12:22;99800.34;;;19.03;100.00
39443;BME280;25147;52.142;9.960;2023-07-29T00:14:49;99794.09;;;18.90;100.00
39443;BME280;25147;52.142;9.960;2023-07-29T00:17:16;99812.75;;;19.02;100.00
39443;BME280;25147;52.142;9.960;2023-07-29T00:19:43;99739.00;;;18.50;100.00
39443;BME280;25147;52.142;9.960;2023-07-29T00:22:12;99780.03;;;18.73;100.00
39443;BME280;25147;52.142;9.960;2023-07-29T00:24:39;99806.31;;;18.92;100.00
39443;BME280;25147;52.142;9.960;2023-07-29T00:27:06;99818.41;;;18.82;100.00
39443;BME280;25147;52.142;9.960;2023-07-29T00:29:33;99817.28;;;18.86;100.00
39443;BME280;25147;52.142;9.960;2023-07-29T00:32:00;99784.25;;;18.61;100.00
39443;BME280;25147;52.142;9.960;2023-07-29T00:34:26;99801.41;;;18.70;100.00
39443;BME280;25147;52.142;9.960;2023-07-29T00:36:53;99798.38;;;18.62;100.00
39443;BME280;25147;52.142;9.960;2023-07-29T00:39:21;99810.25;;;18.71;100.00
39443;BME280;25147;52.142;9.960;2023-07-29T00:41:49;99753.59;;;18.27;100.00
39443;BME280;25147;52.142;9.960;2023-07-29T00:44:16;99814.28;;;18.62;100.00
39443;BME280;25147;52.142;9.960;2023-07-29T00:46:45;99816.28;;;18.58;100.00
39443;BME280;25147;52.142;9.960;2023-07-29T00:49:12;99813.78;;;18.55;100.00
39443;BME280;25147;52.142;9.960;2023-07-29T00:51:39;99790.56;;;18.44;100.00
39443;BME280;25147;52.142;9.960;2023-07-29T00:54:06;99799.09;;;18.50;100.00
39443;BME280;25147;52.142;9.960;2023-07-29T00:56:35;99807.16;;;18.48;100.00
39443;BME280;25147;52.142;9.960;2023-07-29T00:59:02;99806.41;;;18.46;100.00
39443;BME280;25147;52.142;9.960;2023-07-29T01:01:30;99802.97;;;18.44;100.00
39443;BME280;25147;52.142;9.960;2023-07-29T01:03:57;99792.91;;;18.35;100.00
39443;BME280;25147;52.142;9.960;2023-07-29T01:06:29;99796.16;;;18.40;100.00
39443;BME280;25147;52.142;9.960;2023-07-29T01:09:03;99799.81;;;18.37;100.00
39443;BME280;25147;52.142;9.960;2023-07-29T01:11:41;99746.72;;;18.09;100.00
39443;BME280;25147;52.142;9.960;2023-07-29T01:14:21;99722.06;;;17.92;100.00
39443;BME280;25147;52.142;9.960;2023-07-29T01:16:54;99790.53;;;18.30;100.00
39443;BME280;25147;52.142;9.960;2023-07-29T01:19:40;99772.03;;;18.14;100.00
39443;BME280;25147;52.142;9.960;2023-07-29T01:22:10;99794.38;;;18.24;100.00
39443;BME280;25147;52.142;9.960;2023-07-29T01:24:38;99764.50;;;18.07;100.00
39443;BME280;25147;52.142;9.960;2023-07-29T01:27:05;99794.75;;;18.18;100.00
39443;BME280;25147;52.142;9.960;2023-07-29T01:29:32;99776.72;;;18.09;100.00
39443;BME280;25147;52.142;9.960;2023-07-29T01:32:05;99710.13;;;17.69;100.00
39443;BME280;25147;52.142;9.960;2023-07-29T01:34:41;99780.13;;;18.11;100.00
39443;BME280;25147;52.142;9.960;2023-07-29T01:37:11;99777.66;;;18.08;100.00
39443;BME280;25147;52.142;9.960;2023-07-29T01:39:44;99776.06;;;18.06;100.00
39443;BME280;25147;52.142;9.960;2023-07-29T01:42:12;99708.75;;;17.62;100.00
39443;BME280;25147;52.142;9.960;2023-07-29T01:44:39;99781.72;;;17.99;100.00
39443;BME280;25147;52.142;9.960;2023-07-29T01:47:07;99705.88;;;17.51;100.00
39443;BME280;25147;52.142;9.960;2023-07-29T01:49:34;99781.53;;;17.87;100.00
39443;BME280;25147;52.142;9.960;2023-07-29T01:52:01;99717.31;;;17.51;100.00
39443;BME280;25147;52.142;9.960;2023-07-29T01:54:28;99743.44;;;17.73;100.00
39443;BME280;25147;52.142;9.960;2023-07-29T01:56:56;99773.59;;;17.87;100.00
39443;BME280;25147;52.142;9.960;2023-07-29T01:59:23;99752.38;;;17.71;100.00
39443;BME280;25147;52.142;9.960;2023-07-29T02:01:50;99708.78;;;17.46;100.00
39443;BME280;25147;52.142;9.960;2023-07-29T02:04:17;99780.06;;;17.81;100.00
39443;BME280;25147;52.142;9.960;2023-07-29T02:06:43;99765.47;;;17.74;100.00
39443;BME280;25147;52.142;9.960;2023-07-29T02:09:10;99769.50;;;17.81;100.00
39443;BME280;25147;52.142;9.960;2023-07-29T02:11:37;99762.38;;;17.81;100.00
39443;BME280;25147;52.142;9.960;2023-07-29T02:14:05;99763.19;;;17.83;100.00
39443;BME280;25147;52.142;9.960;2023-07-29T02:16:32;99717.91;;;17.56;100.00
39443;BME280;25147;52.142;9.960;2023-07-29T02:19:00;99721.16;;;17.61;100.00
39443;BME280;25147;52.142;9.960;2023-07-29T02:21:27;99755.06;;;17.87;100.00
39443;BME280;25147;52.142;9.960;2023-07-29T02:23:54;99751.47;;;17.88;100.00
39443;BME280;25147;52.142;9.960;2023-07-29T02:26:20;99754.91;;;17.90;100.00
39443;BME280;25147;52.142;9.960;2023-07-29T02:28:47;99744.56;;;17.85;100.00
39443;BME280;25147;52.142;9.960;2023-07-29T02:31:17;99638.47;;;17.26;100.00
39443;BME280;25147;52.142;9.960;2023-07-29T02:33:44;99755.38;;;17.96;100.00
39443;BME280;25147;52.142;9.960;2023-07-29T02:36:12;99717.22;;;17.84;100.00
39443;BME280;25147;52.142;9.960;2023-07-29T02:38:39;99729.25;;;17.90;100.00
39443;BME280;25147;52.142;9.960;2023-07-29T02:41:07;99692.72;;;17.65;100.00
39443;BME280;25147;52.142;9.960;2023-07-29T02:43:34;99731.56;;;17.96;100.00
39443;BME280;25147;52.142;9.960;2023-07-29T02:46:01;99567.81;;;16.80;100.00
39443;BME280;25147;52.142;9.960;2023-07-29T02:48:30;99495.38;;;16.53;100.00
39443;BME280;25147;52.142;9.960;2023-07-29T02:50:56;99529.47;;;16.73;100.00
39443;BME280;25147;52.142;9.960;2023-07-29T02:53:23;99677.19;;;17.59;100.00
39443;BME280;25147;52.142;9.960;2023-07-29T02:55:50;99758.00;;;18.12;100.00
39443;BME280;25147;52.142;9.960;2023-07-29T02:58:17;99666.06;;;17.52;100.00
39443;BME280;25147;52.142;9.960;2023-07-29T03:00:44;99659.84;;;17.53;100.00
39443;BME280;25147;52.142;9.960;2023-07-29T03:03:12;99594.00;;;17.17;100.00
39443;BME280;25147;52.142;9.960;2023-07-29T03:05:41;99754.31;;;18.15;100.00
39443;BME280;25147;52.142;9.960;2023-07-29T03:08:08;99731.28;;;18.01;100.00
39443;BME280;25147;52.142;9.960;2023-07-29T03:10:35;99498.44;;;16.61;100.00
39443;BME280;25147;52.142;9.960;2023-07-29T03:13:02;99530.75;;;16.82;100.00
39443;BME280;25147;52.142;9.960;2023-07-29T03:15:29;99583.28;;;17.20;100.00
39443;BME280;25147;52.142;9.960;2023-07-29T03:17:56;99620.50;;;17.47;100.00
39443;BME280;25147;52.142;9.960;2023-07-29T03:20:23;99702.13;;;18.01;100.00
39443;BME280;25147;52.142;9.960;2023-07-29T03:22:51;99734.28;;;18.25;100.00
39443;BME280;25147;52.142;9.960;2023-07-29T03:25:18;99503.47;;;16.81;100.00
39443;BME280;25147;52.142;9.960;2023-07-29T03:27:50;99271.59;;;15.45;100.00
39443;BME280;25147;52.142;9.960;2023-07-29T03:30:19;99739.31;;;18.30;100.00
39443;BME280;25147;52.142;9.960;2023-07-29T03:32:48;99734.75;;;18.32;100.00
39443;BME280;25147;52.142;9.960;2023-07-29T03:35:16;99654.66;;;17.82;100.00
39443;BME280;25147;52.142;9.960;2023-07-29T03:37:42;99674.97;;;17.83;100.00
39443;BME280;25147;52.142;9.960;2023-07-29T03:40:11;99740.75;;;18.35;100.00
39443;BME280;25147;52.142;9.960;2023-07-29T03:42:37;99742.47;;;18.36;100.00
39443;BME280;25147;52.142;9.960;2023-07-29T03:45:05;99641.09;;;17.72;100.00
39443;BME280;25147;52.142;9.960;2023-07-29T03:47:32;99710.03;;;18.17;100.00
39443;BME280;25147;52.142;9.960;2023-07-29T03:49:59;99737.16;;;18.36;100.00
39443;BME280;25147;52.142;9.960;2023-07-29T03:52:25;99540.28;;;17.16;100.00
39443;BME280;25147;52.142;9.960;2023-07-29T03:54:52;99744.06;;;18.39;100.00
39443;BME280;25147;52.142;9.960;2023-07-29T03:57:20;99732.53;;;18.40;100.00
39443;BME280;25147;52.142;9.960;2023-07-29T03:59:47;99695.50;;;18.24;100.00
39443;BME280;25147;52.142;9.960;2023-07-29T04:02:14;99730.66;;;18.42;100.00
39443;BME280;25147;52.142;9.960;2023-07-29T04:04:41;99719.09;;;18.43;100.00
39443;BME280;25147;52.142;9.960;2023-07-29T04:07:09;99714.63;;;18.43;100.00
39443;BME280;25147;52.142;9.960;2023-07-29T04:09:36;99617.56;;;17.83;100.00
39443;BME280;25147;52.142;9.960;2023-07-29T04:12:03;99629.22;;;17.95;100.00
39443;BME280;25147;52.142;9.960;2023-07-29T04:14:32;99518.91;;;17.19;100.00
39443;BME280;25147;52.142;9.960;2023-07-29T04:16:58;99717.78;;;18.50;100.00
39443;BME280;25147;52.142;9.960;2023-07-29T04:19:25;99717.59;;;18.53;100.00
39443;BME280;25147;52.142;9.960;2023-07-29T04:21:52;99713.81;;;18.57;100.00
39443;BME280;25147;52.142;9.960;2023-07-29T04:24:19;99710.22;;;18.58;100.00
39443;BME280;25147;52.142;9.960;2023-07-29T04:26:46;99707.56;;;18.58;100.00
39443;BME280;25147;52.142;9.960;2023-07-29T04:29:12;99723.28;;;18.61;100.00
39443;BME280;25147;52.142;9.960;2023-07-29T04:31:40;99713.53;;;18.62;100.00
39443;BME280;25147;52.142;9.960;2023-07-29T04:34:08;99706.53;;;18.61;100.00
39443;BME280;25147;52.142;9.960;2023-07-29T04:36:35;99709.28;;;18.59;100.00
39443;BME280;25147;52.142;9.960;2023-07-29T04:39:02;99704.06;;;18.58;100.00
39443;BME280;25147;52.142;9.960;2023-07-29T04:41:29;99702.38;;;18.57;100.00
39443;BME280;25147;52.142;9.960;2023-07-29T04:43:55;99715.41;;;18.45;100.00
39443;BME280;25147;52.142;9.960;2023-07-29T04:46:22;99709.56;;;18.55;100.00
39443;BME280;25147;52.142;9.960;2023-07-29T04:48:50;99309.22;;;16.12;100.00
39443;BME280;25147;52.142;9.960;2023-07-29T04:51:17;99699.78;;;18.55;100.00
39443;BME280;25147;52.142;9.960;2023-07-29T04:53:44;99700.63;;;18.56;100.00
39443;BME280;25147;52.142;9.960;2023-07-29T04:56:11;99566.81;;;17.75;100.00
39443;BME280;25147;52.142;9.960;2023-07-29T04:58:38;99703.22;;;18.57;100.00
39443;BME280;25147;52.142;9.960;2023-07-29T05:01:05;99632.16;;;18.19;100.00
39443;BME280;25147;52.142;9.960;2023-07-29T05:03:31;99558.69;;;17.78;100.00
39443;BME280;25147;52.142;9.960;2023-07-29T05:06:00;99688.91;;;18.60;100.00
39443;BME280;25147;52.142;9.960;2023-07-29T05:08:27;99540.34;;;17.75;100.00
39443;BME280;25147;52.142;9.960;2023-07-29T05:10:54;99692.22;;;18.63;100.00
39443;BME280;25147;52.142;9.960;2023-07-29T05:13:21;99638.22;;;18.36;100.00
39443;BME280;25147;52.142;9.960;2023-07-29T05:15:49;99600.09;;;18.10;100.00
39443;BME280;25147;52.142;9.960;2023-07-29T05:18:16;99444.38;;;17.13;100.00
39443;BME280;25147;52.142;9.960;2023-07-29T05:20:43;99617.00;;;18.07;100.00
39443;BME280;25147;52.142;9.960;2023-07-29T05:23:11;99436.31;;;17.00;100.00
39443;BME280;25147;52.142;9.960;2023-07-29T05:25:38;99676.69;;;18.57;100.00
39443;BME280;25147;52.142;9.960;2023-07-29T05:28:05;99680.19;;;18.58;100.00
39443;BME280;25147;52.142;9.960;2023-07-29T05:30:33;99688.16;;;18.58;100.00
39443;BME280;25147;52.142;9.960;2023-07-29T05:33:03;99684.56;;;18.59;100.00
39443;BME280;25147;52.142;9.960;2023-07-29T05:35:30;99655.41;;;18.44;100.00
39443;BME280;25147;52.142;9.960;2023-07-29T05:37:56;99650.28;;;18.41;100.00
39443;BME280;25147;52.142;9.960;2023-07-29T05:40:25;99684.34;;;18.62;100.00
39443;BME280;25147;52.142;9.960;2023-07-29T05:42:51;99479.88;;;17.39;100.00
39443;BME280;25147;52.142;9.960;2023-07-29T05:45:25;99692.22;;;18.63;100.00
39443;BME280;25147;52.142;9.960;2023-07-29T05:47:55;99693.06;;;18.64;100.00
39443;BME280;25147;52.142;9.960;2023-07-29T05:50:21;99664.28;;;18.43;100.00
39443;BME280;25147;52.142;9.960;2023-07-29T05:52:48;99697.44;;;18.65;100.00
39443;BME280;25147;52.142;9.960;2023-07-29T05:55:15;99694.78;;;18.65;100.00
39443;BME280;25147;52.142;9.960;2023-07-29T05:57:43;99695.63;;;18.65;100.00
39443;BME280;25147;52.142;9.960;2023-07-29T06:00:11;99475.78;;;17.33;100.00
39443;BME280;25147;52.142;9.960;2023-07-29T06:02:38;99686.84;;;18.65;100.00
39443;BME280;25147;52.142;9.960;2023-07-29T06:05:07;99678.03;;;18.64;100.00
39443;BME280;25147;52.142;9.960;2023-07-29T06:07:33;99680.69;;;18.64;100.00
39443;BME280;25147;52.142;9.960;2023-07-29T06:10:00;99628.59;;;18.35;100.00
39443;BME280;25147;52.142;9.960;2023-07-29T06:12:27;99671.97;;;18.62;100.00
39443;BME280;25147;52.142;9.960;2023-07-29T06:14:55;99605.78;;;18.18;100.00
39443;BME280;25147;52.142;9.960;2023-07-29T06:17:22;99318.84;;;16.43;100.00
39443;BME280;25147;52.142;9.960;2023-07-29T06:19:49;99676.31;;;18.49;100.00
39443;BME280;25147;52.142;9.960;2023-07-29T06:22:17;99588.84;;;18.06;100.00
39443;BME280;25147;52.142;9.960;2023-07-29T06:24:43;99667.50;;;18.49;100.00
39443;BME280;25147;52.142;9.960;2023-07-29T06:27:10;99670.63;;;18.55;100.00
39443;BME280;25147;52.142;9.960;2023-07-29T06:29:37;99328.66;;;16.41;100.00
39443;BME280;25147;52.142;9.960;2023-07-29T06:32:07;99534.44;;;17.56;100.00
39443;BME280;25147;52.142;9.960;2023-07-29T06:34:33;99701.75;;;18.37;100.00
39443;BME280;25147;52.142;9.960;2023-07-29T06:37:00;99536.53;;;17.65;100.00
39443;BME280;25147;52.142;9.960;2023-07-29T06:39:27;99627.44;;;18.10;100.00
39443;BME280;25147;52.142;9.960;2023-07-29T06:41:54;99616.16;;;18.07;100.00
39443;BME280;25147;52.142;9.960;2023-07-29T06:44:21;99676.00;;;18.39;100.00
39443;BME280;25147;52.142;9.960;2023-07-29T06:46:48;99678.59;;;18.55;100.00
39443;BME280;25147;52.142;9.960;2023-07-29T06:49:16;99638.06;;;18.39;100.00
39443;BME280;25147;52.142;9.960;2023-07-29T06:51:43;99677.09;;;18.80;100.00
39443;BME280;25147;52.142;9.960;2023-07-29T06:54:11;99633.34;;;18.58;100.00
39443;BME280;25147;52.142;9.960;2023-07-29T06:56:38;99688.91;;;19.03;100.00
39443;BME280;25147;52.142;9.960;2023-07-29T06:59:04;99638.06;;;18.82;100.00
39443;BME280;25147;52.142;9.960;2023-07-29T07:01:31;99680.75;;;19.20;100.00
39443;BME280;25147;52.142;9.960;2023-07-29T07:03:58;99645.22;;;19.09;100.00
39443;BME280;25147;52.142;9.960;2023-07-29T07:06:26;99501.81;;;18.14;100.00
39443;BME280;25147;52.142;9.960;2023-07-29T07:08:53;99681.84;;;19.31;100.00
39443;BME280;25147;52.142;9.960;2023-07-29T07:11:20;99689.91;;;19.29;100.00
39443;BME280;25147;52.142;9.960;2023-07-29T07:13:46;99681.09;;;19.29;100.00
39443;BME280;25147;52.142;9.960;2023-07-29T07:16:13;99708.50;;;19.29;100.00
39443;BME280;25147;52.142;9.960;2023-07-29T07:18:40;99684.59;;;19.29;100.00
39443;BME280;25147;52.142;9.960;2023-07-29T07:21:07;99694.28;;;19.30;100.00
39443;BME280;25147;52.142;9.960;2023-07-29T07:23:35;99426.88;;;17.69;100.00
39443;BME280;25147;52.142;9.960;2023-07-29T07:26:02;99663.63;;;19.12;100.00
39443;BME280;25147;52.142;9.960;2023-07-29T07:28:29;99518.22;;;18.34;100.00
39443;BME280;25147;52.142;9.960;2023-07-29T07:30:56;99685.22;;;19.47;100.00
39443;BME280;25147;52.142;9.960;2023-07-29T07:33:23;99536.75;;;18.62;100.00
39443;BME280;25147;52.142;9.960;2023-07-29T07:35:50;99386.31;;;17.69;100.00
39443;BME280;25147;52.142;9.960;2023-07-29T07:38:17;99353.78;;;17.67;100.00
39443;BME280;25147;52.142;9.960;2023-07-29T07:40:53;99403.06;;;17.83;100.00
39443;BME280;25147;52.142;9.960;2023-07-29T07:43:21;99407.66;;;18.09;100.00
39443;BME280;25147;52.142;9.960;2023-07-29T07:45:48;99648.22;;;19.58;100.00
39443;BME280;25147;52.142;9.960;2023-07-29T07:48:15;99601.19;;;19.33;100.00
39443;BME280;25147;52.142;9.960;2023-07-29T07:50:42;99670.31;;;19.86;100.00
39443;BME280;25147;52.142;9.960;2023-07-29T07:53:09;99554.28;;;19.07;100.00
39443;BME280;25147;52.142;9.960;2023-07-29T07:55:36;99590.75;;;19.57;100.00
39443;BME280;25147;52.142;9.960;2023-07-29T07:58:04;99672.69;;;20.16;100.00
39443;BME280;25147;52.142;9.960;2023-07-29T08:00:31;99599.22;;;19.77;100.00
39443;BME280;25147;52.142;9.960;2023-07-29T08:02:58;99648.78;;;20.29;100.00
39443;BME280;25147;52.142;9.960;2023-07-29T08:05:25;99655.59;;;20.33;100.00
39443;BME280;25147;52.142;9.960;2023-07-29T08:07:52;99444.34;;;19.11;100.00
39443;BME280;25147;52.142;9.960;2023-07-29T08:10:18;99395.59;;;18.86;100.00
39443;BME280;25147;52.142;9.960;2023-07-29T08:12:45;99368.34;;;18.97;100.00
39443;BME280;25147;52.142;9.960;2023-07-29T08:15:13;99601.91;;;20.54;100.00
39443;BME280;25147;52.142;9.960;2023-07-29T08:17:40;99653.69;;;20.87;100.00
39443;BME280;25147;52.142;9.960;2023-07-29T08:20:08;99548.19;;;20.23;100.00
39443;BME280;25147;52.142;9.960;2023-07-29T08:22:35;99540.22;;;20.23;100.00
39443;BME280;25147;52.142;9.960;2023-07-29T08:25:02;99485.31;;;19.85;100.00
39443;BME280;25147;52.142;9.960;2023-07-29T08:27:29;99668.53;;;21.02;100.00
39443;BME280;25147;52.142;9.960;2023-07-29T08:29:56;99671.00;;;21.05;100.00
39443;BME280;25147;52.142;9.960;2023-07-29T08:32:24;99571.38;;;20.34;100.00
39443;BME280;25147;52.142;9.960;2023-07-29T08:34:53;99583.16;;;20.55;100.00
39443;BME280;25147;52.142;9.960;2023-07-29T08:37:19;99569.34;;;20.50;100.00
39443;BME280;25147;52.142;9.960;2023-07-29T08:39:49;99434.66;;;19.75;100.00
39443;BME280;25147;52.142;9.960;2023-07-29T08:42:23;99391.41;;;19.09;100.00
39443;BME280;25147;52.142;9.960;2023-07-29T08:44:54;99334.50;;;18.88;100.00
39443;BME280;25147;52.142;9.960;2023-07-29T08:47:28;99290.63;;;18.56;100.00
39443;BME280;25147;52.142;9.960;2023-07-29T08:49:57;99357.41;;;18.89;100.00
39443;BME280;25147;52.142;9.960;2023-07-29T08:52:26;99630.06;;;20.69;100.00
39443;BME280;25147;52.142;9.960;2023-07-29T08:54:54;99635.63;;;20.66;100.00
39443;BME280;25147;52.142;9.960;2023-07-29T08:57:22;99570.94;;;20.27;100.00
39443;BME280;25147;52.142;9.960;2023-07-29T08:59:52;99687.72;;;20.94;100.00
39443;BME280;25147;52.142;9.960;2023-07-29T09:02:23;99687.84;;;20.80;100.00
39443;BME280;25147;52.142;9.960;2023-07-29T09:04:51;99626.25;;;20.35;100.00
39443;BME280;25147;52.142;9.960;2023-07-29T09:07:20;99207.56;;;17.63;100.00
39443;BME280;25147;52.142;9.960;2023-07-29T09:09:50;99670.72;;;20.46;100.00
39443;BME280;25147;52.142;9.960;2023-07-29T09:12:17;99469.09;;;19.24;100.00
39443;BME280;25147;52.142;9.960;2023-07-29T09:14:45;99635.16;;;20.21;100.00
39443;BME280;25147;52.142;9.960;2023-07-29T09:17:12;99510.66;;;19.38;100.00
39443;BME280;25147;52.142;9.960;2023-07-29T09:19:39;99670.38;;;20.50;100.00
39443;BME280;25147;52.142;9.960;2023-07-29T09:22:17;99673.56;;;20.42;100.00
39443;BME280;25147;52.142;9.960;2023-07-29T09:24:45;99673.78;;;20.52;100.00
39443;BME280;25147;52.142;9.960;2023-07-29T09:27:23;99583.09;;;19.93;100.00
39443;BME280;25147;52.142;9.960;2023-07-29T09:29:54;99586.41;;;20.09;100.00
39443;BME280;25147;52.142;9.960;2023-07-29T09:32:22;99665.72;;;20.67;100.00
39443;BME280;25147;52.142;9.960;2023-07-29T09:34:49;99664.22;;;20.75;100.00
39443;BME280;25147;52.142;9.960;2023-07-29T09:37:18;99659.22;;;20.83;100.00
39443;BME280;25147;52.142;9.960;2023-07-29T09:39:47;99653.34;;;20.91;100.00
39443;BME280;25147;52.142;9.960;2023-07-29T09:42:22;99665.03;;;21.01;100.00
39443;BME280;25147;52.142;9.960;2023-07-29T09:44:51;99677.78;;;21.09;100.00
39443;BME280;25147;52.142;9.960;2023-07-29T09:47:20;99563.38;;;20.59;100.00
39443;BME280;25147;52.142;9.960;2023-07-29T09:49:47;99447.56;;;20.06;100.00
39443;BME280;25147;52.142;9.960;2023-07-29T09:52:15;99632.16;;;21.27;100.00
39443;BME280;25147;52.142;9.960;2023-07-29T09:54:44;99505.41;;;20.64;100.00
39443;BME280;25147;52.142;9.960;2023-07-29T09:57:30;99518.16;;;20.72;100.00
39443;BME280;25147;52.142;9.960;2023-07-29T10:00:14;99667.34;;;21.91;100.00
39443;BME280;25147;52.142;9.960;2023-07-29T10:02:42;99600.78;;;21.67;100.00
39443;BME280;25147;52.142;9.960;2023-07-29T10:05:10;99665.84;;;22.11;100.00
39443;BME280;25147;52.142;9.960;2023-07-29T10:07:38;99575.31;;;21.63;100.00
39443;BME280;25147;52.142;9.960;2023-07-29T10:10:08;99664.94;;;22.23;100.00
39443;BME280;25147;52.142;9.960;2023-07-29T10:12:35;99671.94;;;22.24;99.09
39443;BME280;25147;52.142;9.960;2023-07-29T10:15:04;99634.16;;;21.95;98.59
39443;BME280;25147;52.142;9.960;2023-07-29T10:17:34;99678.91;;;22.14;96.95
39443;BME280;25147;52.142;9.960;2023-07-29T10:20:01;99684.97;;;22.05;95.98
39443;BME280;25147;52.142;9.960;2023-07-29T10:22:34;99582.56;;;21.50;96.26
39443;BME280;25147;52.142;9.960;2023-07-29T10:25:04;99463.31;;;20.58;95.89
39443;BME280;25147;52.142;9.960;2023-07-29T10:27:45;99666.72;;;21.88;96.39
39443;BME280;25147;52.142;9.960;2023-07-29T10:30:14;99457.75;;;20.61;95.74
39443;BME280;25147;52.142;9.960;2023-07-29T10:32:44;99664.72;;;21.67;96.03
39443;BME280;25147;52.142;9.960;2023-07-29T10:35:12;99647.25;;;21.63;96.67
39443;BME280;25147;52.142;9.960;2023-07-29T10:37:39;99651.09;;;21.59;96.52
39443;BME280;25147;52.142;9.960;2023-07-29T10:40:08;99659.44;;;21.54;95.90
39443;BME280;25147;52.142;9.960;2023-07-29T10:42:35;99667.78;;;21.50;95.36
39443;BME280;25147;52.142;9.960;2023-07-29T10:47:57;99557.44;;;20.93;93.19
39443;BME280;25147;52.142;9.960;2023-07-29T10:50:24;99654.97;;;21.55;91.37
39443;BME280;25147;52.142;9.960;2023-07-29T10:52:56;99546.66;;;20.94;89.87
39443;BME280;25147;52.142;9.960;2023-07-29T10:55:27;99634.84;;;21.51;85.09
39443;BME280;25147;52.142;9.960;2023-07-29T10:58:10;99661.00;;;21.70;85.29
39443;BME280;25147;52.142;9.960;2023-07-29T11:00:38;99633.88;;;21.76;84.63
39443;BME280;25147;52.142;9.960;2023-07-29T11:03:07;99562.25;;;21.36;84.70
39443;BME280;25147;52.142;9.960;2023-07-29T11:05:45;99632.06;;;21.88;85.56
39443;BME280;25147;52.142;9.960;2023-07-29T11:08:26;99563.03;;;21.49;85.05
39443;BME280;25147;52.142;9.960;2023-07-29T11:11:07;99631.19;;;22.11;84.47
39443;BME280;25147;52.142;9.960;2023-07-29T11:13:37;99630.53;;;22.32;83.13
39443;BME280;25147;52.142;9.960;2023-07-29T11:16:04;99647.13;;;22.47;81.14
39443;BME280;25147;52.142;9.960;2023-07-29T11:18:36;99461.38;;;21.44;79.76
39443;BME280;25147;52.142;9.960;2023-07-29T11:21:05;99534.28;;;21.66;80.22
39443;BME280;25147;52.142;9.960;2023-07-29T11:23:33;99466.94;;;21.52;79.58
39443;BME280;25147;52.142;9.960;2023-07-29T11:26:02;99644.22;;;22.61;79.17
39443;BME280;25147;52.142;9.960;2023-07-29T11:28:38;99648.25;;;22.67;78.50
39443;BME280;25147;52.142;9.960;2023-07-29T11:31:05;99608.47;;;22.52;75.70
39443;BME280;25147;52.142;9.960;2023-07-29T11:33:32;99626.91;;;22.67;73.50
39443;BME280;25147;52.142;9.960;2023-07-29T11:36:00;99644.97;;;22.63;73.22
39443;BME280;25147;52.142;9.960;2023-07-29T11:38:27;99640.59;;;22.62;72.46
39443;BME280;25147;52.142;9.960;2023-07-29T11:40:58;99595.84;;;22.32;72.95
39443;BME280;25147;52.142;9.960;2023-07-29T11:43:25;99675.66;;;22.69;72.97
39443;BME280;25147;52.142;9.960;2023-07-29T11:45:55;99483.66;;;21.66;70.06
39443;BME280;25147;52.142;9.960;2023-07-29T11:48:30;99637.31;;;22.58;70.02
39443;BME280;25147;52.142;9.960;2023-07-29T11:50:57;99658.19;;;22.64;67.46
39443;BME280;25147;52.142;9.960;2023-07-29T11:53:27;99415.50;;;21.05;69.24
39443;BME280;25147;52.142;9.960;2023-07-29T11:55:55;99661.72;;;22.54;68.32
39443;BME280;25147;52.142;9.960;2023-07-29T11:58:27;99659.25;;;22.51;68.16
39443;BME280;25147;52.142;9.960;2023-07-29T12:00:55;99658.44;;;22.39;68.10
39443;BME280;25147;52.142;9.960;2023-07-29T12:03:23;99673.47;;;22.51;68.33
39443;BME280;25147;52.142;9.960;2023-07-29T12:05:53;99660.63;;;22.45;67.90
39443;BME280;25147;52.142;9.960;2023-07-29T12:08:27;99308.69;;;20.39;67.28
39443;BME280;25147;52.142;9.960;2023-07-29T12:10:54;99679.88;;;22.71;65.53
39443;BME280;25147;52.142;9.960;2023-07-29T12:13:23;99679.28;;;22.79;65.31
39443;BME280;25147;52.142;9.960;2023-07-29T12:15:50;99470.13;;;21.69;64.23
39443;BME280;25147;52.142;9.960;2023-07-29T12:18:17;99669.22;;;22.94;64.59
39443;BME280;25147;52.142;9.960;2023-07-29T12:20:44;99589.31;;;22.47;64.12
39443;BME280;25147;52.142;9.960;2023-07-29T12:23:14;99677.81;;;22.97;62.96
39443;BME280;25147;52.142;9.960;2023-07-29T12:25:43;99587.72;;;22.44;63.35
39443;BME280;25147;52.142;9.960;2023-07-29T12:28:10;99665.47;;;22.96;63.26
39443;BME280;25147;52.142;9.960;2023-07-29T12:30:43;99438.50;;;21.53;60.96
39443;BME280;25147;52.142;9.960;2023-07-29T12:33:09;99664.88;;;23.04;61.06
39443;BME280;25147;52.142;9.960;2023-07-29T12:35:37;99645.56;;;23.00;60.97
39443;BME280;25147;52.142;9.960;2023-07-29T12:38:03;99663.03;;;23.16;61.07
39443;BME280;25147;52.142;9.960;2023-07-29T12:40:30;99660.84;;;23.21;59.21
39443;BME280;25147;52.142;9.960;2023-07-29T12:42:58;99652.56;;;23.24;59.85
39443;BME280;25147;52.142;9.960;2023-07-29T12:45:25;99603.84;;;22.88;60.61
39443;BME280;25147;52.142;9.960;2023-07-29T12:47:55;99667.47;;;23.38;60.82
39443;BME280;25147;52.142;9.960;2023-07-29T12:50:22;99561.03;;;22.78;59.38
39443;BME280;25147;52.142;9.960;2023-07-29T12:52:49;99477.19;;;22.37;58.17
39443;BME280;25147;52.142;9.960;2023-07-29T12:55:16;99669.97;;;23.62;57.02
39443;BME280;25147;52.142;9.960;2023-07-29T12:57:49;99531.41;;;22.81;54.71
39443;BME280;25147;52.142;9.960;2023-07-29T13:00:21;99663.69;;;23.52;54.89